sensor_id;sensor_type;location;lat;lon;timestamp;pressure;altitude;pressure_sealevel;temperature;humidity
60267;BME280;46125;61.360;-149.532;2023-08-24T00:00:45;99922.45;;;21.61;47.36
60267;BME280;46125;61.360;-149.532;2023-08-24T00:03:14;99920.29;;;20.39;48.68
60267;BME280;46125;61.360;-149.532;2023-08-24T00:05:42;99919.12;;;20.91;46.23
60267;BME280;46125;61.360;-149.532;2023-08-24T00:08:11;99924.98;;;22.35;47.94
60267;BME280;46125;61.360;-149.532;2023-08-24T00:10:42;99925.21;;;22.63;47.35
60267;BME280;46125;61.360;-149.532;2023-08-24T00:13:10;99920.00;;;21.01;49.22
60267;BME280;46125;61.360;-149.532;2023-08-24T00:15:39;99920.06;;;22.31;45.19
60267;BME280;46125;61.360;-149.532;2023-08-24T00:18:07;99919.85;;;21.29;46.84
60267;BME280;46125;61.360;-149.532;2023-08-24T00:20:35;99918.67;;;21.72;47.59
60267;BME280;46125;61.360;-149.532;2023-08-24T00:23:04;99921.33;;;22.35;45.61
60267;BME280;46125;61.360;-149.532;2023-08-24T00:25:33;99922.09;;;22.50;43.14
60267;BME280;46125;61.360;-149.532;2023-08-24T00:28:01;99921.81;;;20.93;49.30
60267;BME280;46125;61.360;-149.532;2023-08-24T00:30:30;99919.93;;;22.82;45.89
60267;BME280;46125;61.360;-149.532;2023-08-24T00:32:58;99917.68;;;22.14;46.44
60267;BME280;46125;61.360;-149.532;2023-08-24T00:35:26;99916.39;;;21.02;50.79
60267;BME280;46125;61.360;-149.532;2023-08-24T00:37:55;99916.15;;;20.30;50.87
60267;BME280;46125;61.360;-149.532;2023-08-24T00:40:23;99914.75;;;21.09;47.74
60267;BME280;46125;61.360;-149.532;2023-08-24T00:42:52;99913.73;;;22.10;46.34
60267;BME280;46125;61.360;-149.532;2023-08-24T00:45:25;99915.43;;;22.34;45.92
60267;BME280;46125;61.360;-149.532;2023-08-24T00:47:54;99912.80;;;22.71;46.13
60267;BME280;46125;61.360;-149.532;2023-08-24T00:50:22;99910.83;;;23.23;43.37
60267;BME280;46125;61.360;-149.532;2023-08-24T00:52:51;99907.89;;;20.85;48.20
60267;BME280;46125;61.360;-149.532;2023-08-24T00:55:21;99908.63;;;22.65;46.39
60267;BME280;46125;61.360;-149.532;2023-08-24T00:57:49;99907.89;;;23.41;43.89
60267;BME280;46125;61.360;-149.532;2023-08-24T01:00:18;99906.34;;;22.38;45.74
60267;BME280;46125;61.360;-149.532;2023-08-24T01:02:46;99906.09;;;22.77;46.27
60267;BME280;46125;61.360;-149.532;2023-08-24T01:05:14;99910.33;;;23.04;45.60
60267;BME280;46125;61.360;-149.532;2023-08-24T01:07:42;99912.69;;;22.55;45.77
60267;BME280;46125;61.360;-149.532;2023-08-24T01:10:11;99912.51;;;23.10;44.44
60267;BME280;46125;61.360;-149.532;2023-08-24T01:12:55;99910.01;;;22.68;47.82
60267;BME280;46125;61.360;-149.532;2023-08-24T01:15:35;99910.85;;;23.04;46.27
60267;BME280;46125;61.360;-149.532;2023-08-24T01:18:08;99907.77;;;22.66;46.85
60267;BME280;46125;61.360;-149.532;2023-08-24T01:20:39;99909.45;;;23.37;46.44
60267;BME280;46125;61.360;-149.532;2023-08-24T01:23:18;99905.05;;;22.68;45.43
60267;BME280;46125;61.360;-149.532;2023-08-24T01:25:53;99904.89;;;22.49;47.51
60267;BME280;46125;61.360;-149.532;2023-08-24T01:28:24;99905.22;;;22.08;48.07
60267;BME280;46125;61.360;-149.532;2023-08-24T01:30:52;99904.47;;;23.64;45.32
60267;BME280;46125;61.360;-149.532;2023-08-24T01:33:22;99906.26;;;22.14;50.05
60267;BME280;46125;61.360;-149.532;2023-08-24T01:35:50;99904.81;;;21.11;51.93
60267;BME280;46125;61.360;-149.532;2023-08-24T01:38:18;99903.84;;;21.86;48.07
60267;BME280;46125;61.360;-149.532;2023-08-24T01:40:51;99907.36;;;22.00;49.53
60267;BME280;46125;61.360;-149.532;2023-08-24T01:43:28;99907.18;;;21.85;50.09
60267;BME280;46125;61.360;-149.532;2023-08-24T01:45:58;99908.02;;;21.18;51.46
60267;BME280;46125;61.360;-149.532;2023-08-24T01:48:32;99907.69;;;22.05;50.81
60267;BME280;46125;61.360;-149.532;2023-08-24T01:51:02;99911.37;;;22.00;50.92
60267;BME280;46125;61.360;-149.532;2023-08-24T01:53:34;99915.00;;;21.98;50.66
60267;BME280;46125;61.360;-149.532;2023-08-24T01:56:09;99916.08;;;20.03;53.76
60267;BME280;46125;61.360;-149.532;2023-08-24T01:58:37;99913.98;;;20.22;55.00
60267;BME280;46125;61.360;-149.532;2023-08-24T02:01:06;99917.40;;;21.38;51.64
60267;BME280;46125;61.360;-149.532;2023-08-24T02:03:35;99918.16;;;21.41;52.60
60267;BME280;46125;61.360;-149.532;2023-08-24T02:06:04;99917.45;;;20.71;52.59
60267;BME280;46125;61.360;-149.532;2023-08-24T02:08:33;99916.43;;;21.38;52.29
60267;BME280;46125;61.360;-149.532;2023-08-24T02:11:01;99911.55;;;20.91;51.88
60267;BME280;46125;61.360;-149.532;2023-08-24T02:13:29;99912.49;;;20.56;50.64
60267;BME280;46125;61.360;-149.532;2023-08-24T02:16:07;99917.01;;;19.88;53.79
60267;BME280;46125;61.360;-149.532;2023-08-24T02:18:35;99918.87;;;20.77;51.91
60267;BME280;46125;61.360;-149.532;2023-08-24T02:21:08;99920.31;;;20.45;53.01
60267;BME280;46125;61.360;-149.532;2023-08-24T02:23:36;99924.14;;;20.15;52.83
60267;BME280;46125;61.360;-149.532;2023-08-24T02:26:05;99925.38;;;20.18;52.75
60267;BME280;46125;61.360;-149.532;2023-08-24T02:28:34;99928.57;;;19.87;53.18
60267;BME280;46125;61.360;-149.532;2023-08-24T02:31:03;99930.86;;;19.50;54.77
60267;BME280;46125;61.360;-149.532;2023-08-24T02:33:31;99934.46;;;19.43;56.57
60267;BME280;46125;61.360;-149.532;2023-08-24T02:36:00;99938.58;;;19.51;53.48
60267;BME280;46125;61.360;-149.532;2023-08-24T02:38:34;99941.58;;;19.19;54.56
60267;BME280;46125;61.360;-149.532;2023-08-24T02:41:03;99936.66;;;20.11;51.52
60267;BME280;46125;61.360;-149.532;2023-08-24T02:43:32;99940.82;;;19.73;50.23
60267;BME280;46125;61.360;-149.532;2023-08-24T02:46:02;99946.40;;;19.19;52.95
60267;BME280;46125;61.360;-149.532;2023-08-24T02:48:31;99944.34;;;19.26;52.43
60267;BME280;46125;61.360;-149.532;2023-08-24T02:51:00;99943.00;;;18.95;52.30
60267;BME280;46125;61.360;-149.532;2023-08-24T02:53:29;99942.74;;;18.80;52.83
60267;BME280;46125;61.360;-149.532;2023-08-24T02:56:04;99946.03;;;18.08;56.10
60267;BME280;46125;61.360;-149.532;2023-08-24T02:58:32;99940.03;;;18.71;55.31
60267;BME280;46125;61.360;-149.532;2023-08-24T03:01:05;99945.35;;;18.81;53.31
60267;BME280;46125;61.360;-149.532;2023-08-24T03:03:33;99946.93;;;18.85;51.95
60267;BME280;46125;61.360;-149.532;2023-08-24T03:06:02;99954.75;;;19.20;53.64
60267;BME280;46125;61.360;-149.532;2023-08-24T03:08:32;99953.40;;;17.65;56.45
60267;BME280;46125;61.360;-149.532;2023-08-24T03:11:02;99955.91;;;18.67;53.47
60267;BME280;46125;61.360;-149.532;2023-08-24T03:13:31;99956.35;;;18.80;52.76
60267;BME280;46125;61.360;-149.532;2023-08-24T03:16:04;99954.89;;;18.46;52.49
60267;BME280;46125;61.360;-149.532;2023-08-24T03:18:32;99959.06;;;18.60;55.43
60267;BME280;46125;61.360;-149.532;2023-08-24T03:21:01;99955.23;;;17.90;55.19
60267;BME280;46125;61.360;-149.532;2023-08-24T03:23:29;99958.51;;;17.96;56.48
60267;BME280;46125;61.360;-149.532;2023-08-24T03:25:58;99958.94;;;18.06;55.75
60267;BME280;46125;61.360;-149.532;2023-08-24T03:28:27;99963.12;;;17.56;55.91
60267;BME280;46125;61.360;-149.532;2023-08-24T03:30:55;99960.76;;;17.97;57.22
60267;BME280;46125;61.360;-149.532;2023-08-24T03:33:24;99960.64;;;17.06;57.08
60267;BME280;46125;61.360;-149.532;2023-08-24T03:35:52;99957.83;;;17.39;57.71
60267;BME280;46125;61.360;-149.532;2023-08-24T03:38:20;99958.24;;;17.31;57.83
60267;BME280;46125;61.360;-149.532;2023-08-24T03:40:59;99956.92;;;16.59;59.27
60267;BME280;46125;61.360;-149.532;2023-08-24T03:43:28;99960.58;;;17.73;56.02
60267;BME280;46125;61.360;-149.532;2023-08-24T03:45:56;99967.36;;;16.94;57.02
60267;BME280;46125;61.360;-149.532;2023-08-24T03:48:29;99967.32;;;17.25;58.59
60267;BME280;46125;61.360;-149.532;2023-08-24T03:50:58;99967.03;;;16.35;59.39
60267;BME280;46125;61.360;-149.532;2023-08-24T03:53:27;99969.23;;;16.40;58.66
60267;BME280;46125;61.360;-149.532;2023-08-24T03:55:55;99968.90;;;16.76;59.56
60267;BME280;46125;61.360;-149.532;2023-08-24T03:58:24;99965.84;;;16.60;60.12
60267;BME280;46125;61.360;-149.532;2023-08-24T04:00:53;99961.79;;;17.08;60.14
60267;BME280;46125;61.360;-149.532;2023-08-24T04:03:21;99963.00;;;16.69;60.36
60267;BME280;46125;61.360;-149.532;2023-08-24T04:05:50;99962.32;;;16.51;61.80
60267;BME280;46125;61.360;-149.532;2023-08-24T04:08:18;99966.52;;;16.48;62.12
60267;BME280;46125;61.360;-149.532;2023-08-24T04:10:46;99960.33;;;16.10;62.64
60267;BME280;46125;61.360;-149.532;2023-08-24T04:13:14;99966.35;;;16.27;61.89
60267;BME280;46125;61.360;-149.532;2023-08-24T04:15:43;99974.60;;;16.49;60.93
60267;BME280;46125;61.360;-149.532;2023-08-24T04:18:11;99979.96;;;16.53;60.68
60267;BME280;46125;61.360;-149.532;2023-08-24T04:20:40;99986.55;;;16.70;60.67
60267;BME280;46125;61.360;-149.532;2023-08-24T04:23:07;99992.62;;;16.33;61.22
60267;BME280;46125;61.360;-149.532;2023-08-24T04:25:39;99989.11;;;16.27;59.87
60267;BME280;46125;61.360;-149.532;2023-08-24T04:28:07;99990.66;;;15.66;62.39
60267;BME280;46125;61.360;-149.532;2023-08-24T04:30:35;99985.25;;;15.86;61.95
60267;BME280;46125;61.360;-149.532;2023-08-24T04:33:04;99982.39;;;15.82;61.58
60267;BME280;46125;61.360;-149.532;2023-08-24T04:35:34;99987.13;;;15.77;63.34
60267;BME280;46125;61.360;-149.532;2023-08-24T04:38:03;99988.58;;;15.77;62.61
60267;BME280;46125;61.360;-149.532;2023-08-24T04:40:46;99981.54;;;15.50;63.48
60267;BME280;46125;61.360;-149.532;2023-08-24T04:43:20;99988.05;;;16.12;61.87
60267;BME280;46125;61.360;-149.532;2023-08-24T04:45:49;99998.27;;;15.43;65.16
60267;BME280;46125;61.360;-149.532;2023-08-24T04:48:18;99992.94;;;15.95;63.69
60267;BME280;46125;61.360;-149.532;2023-08-24T04:50:46;99995.96;;;16.25;62.10
60267;BME280;46125;61.360;-149.532;2023-08-24T04:53:16;100003.00;;;15.36;64.77
60267;BME280;46125;61.360;-149.532;2023-08-24T04:55:45;99998.76;;;16.22;63.23
60267;BME280;46125;61.360;-149.532;2023-08-24T04:58:14;99997.29;;;16.01;62.11
60267;BME280;46125;61.360;-149.532;2023-08-24T05:00:43;100000.51;;;16.08;62.12
60267;BME280;46125;61.360;-149.532;2023-08-24T05:03:11;100001.41;;;15.97;62.79
60267;BME280;46125;61.360;-149.532;2023-08-24T05:05:40;100002.21;;;15.36;64.63
60267;BME280;46125;61.360;-149.532;2023-08-24T05:08:09;99999.69;;;16.20;63.29
60267;BME280;46125;61.360;-149.532;2023-08-24T05:10:38;100003.12;;;15.75;63.35
60267;BME280;46125;61.360;-149.532;2023-08-24T05:13:06;100003.64;;;15.67;63.86
60267;BME280;46125;61.360;-149.532;2023-08-24T05:15:34;100000.91;;;15.40;64.66
60267;BME280;46125;61.360;-149.532;2023-08-24T05:18:03;99999.01;;;15.42;65.80
60267;BME280;46125;61.360;-149.532;2023-08-24T05:20:33;99997.08;;;16.42;62.15
60267;BME280;46125;61.360;-149.532;2023-08-24T05:23:01;100003.94;;;16.60;61.17
60267;BME280;46125;61.360;-149.532;2023-08-24T05:25:35;100004.05;;;16.89;61.43
60267;BME280;46125;61.360;-149.532;2023-08-24T05:28:03;100009.50;;;17.01;60.96
60267;BME280;46125;61.360;-149.532;2023-08-24T05:30:37;100005.06;;;17.07;60.47
60267;BME280;46125;61.360;-149.532;2023-08-24T05:33:05;100004.15;;;17.34;59.82
60267;BME280;46125;61.360;-149.532;2023-08-24T05:35:33;100011.60;;;17.16;59.67
60267;BME280;46125;61.360;-149.532;2023-08-24T05:38:02;100012.05;;;16.59;62.52
60267;BME280;46125;61.360;-149.532;2023-08-24T05:40:33;100010.07;;;16.80;61.33
60267;BME280;46125;61.360;-149.532;2023-08-24T05:43:01;100010.53;;;16.88;62.31
60267;BME280;46125;61.360;-149.532;2023-08-24T05:45:30;100012.37;;;17.47;60.73
60267;BME280;46125;61.360;-149.532;2023-08-24T05:47:58;100012.30;;;17.10;61.12
60267;BME280;46125;61.360;-149.532;2023-08-24T05:50:26;100009.32;;;17.37;59.73
60267;BME280;46125;61.360;-149.532;2023-08-24T05:52:55;100011.20;;;17.65;59.27
60267;BME280;46125;61.360;-149.532;2023-08-24T05:55:23;100019.18;;;17.92;58.31
60267;BME280;46125;61.360;-149.532;2023-08-24T05:57:51;100025.16;;;17.17;60.35
60267;BME280;46125;61.360;-149.532;2023-08-24T06:00:25;100025.70;;;17.16;60.84
60267;BME280;46125;61.360;-149.532;2023-08-24T06:02:54;100023.46;;;17.00;60.64
60267;BME280;46125;61.360;-149.532;2023-08-24T06:05:22;100023.02;;;17.02;61.52
60267;BME280;46125;61.360;-149.532;2023-08-24T06:07:50;100025.06;;;16.88;62.20
60267;BME280;46125;61.360;-149.532;2023-08-24T06:10:19;100026.92;;;17.36;60.97
60267;BME280;46125;61.360;-149.532;2023-08-24T06:12:47;100024.19;;;17.35;59.67
60267;BME280;46125;61.360;-149.532;2023-08-24T06:15:16;100019.47;;;17.52;59.54
60267;BME280;46125;61.360;-149.532;2023-08-24T06:17:44;100013.37;;;17.46;59.85
60267;BME280;46125;61.360;-149.532;2023-08-24T06:20:13;100012.08;;;17.63;59.88
60267;BME280;46125;61.360;-149.532;2023-08-24T06:22:47;100010.63;;;17.34;59.76
60267;BME280;46125;61.360;-149.532;2023-08-24T06:25:15;100016.80;;;17.86;58.53
60267;BME280;46125;61.360;-149.532;2023-08-24T06:27:44;100023.99;;;18.00;57.71
60267;BME280;46125;61.360;-149.532;2023-08-24T06:30:12;100026.41;;;17.83;57.56
60267;BME280;46125;61.360;-149.532;2023-08-24T06:32:41;100028.76;;;18.10;57.22
60267;BME280;46125;61.360;-149.532;2023-08-24T06:35:09;100030.72;;;18.17;57.14
60267;BME280;46125;61.360;-149.532;2023-08-24T06:37:38;100025.35;;;18.14;57.20
60267;BME280;46125;61.360;-149.532;2023-08-24T06:40:07;100021.77;;;18.00;57.67
60267;BME280;46125;61.360;-149.532;2023-08-24T06:42:35;100021.25;;;18.03;57.55
60267;BME280;46125;61.360;-149.532;2023-08-24T06:45:09;100017.94;;;17.69;58.58
60267;BME280;46125;61.360;-149.532;2023-08-24T06:47:38;100017.32;;;18.13;57.32
60267;BME280;46125;61.360;-149.532;2023-08-24T06:50:07;100015.92;;;18.13;57.45
60267;BME280;46125;61.360;-149.532;2023-08-24T06:52:36;100012.95;;;18.01;57.35
60267;BME280;46125;61.360;-149.532;2023-08-24T06:55:05;100013.82;;;17.76;57.63
60267;BME280;46125;61.360;-149.532;2023-08-24T06:57:34;100009.60;;;17.78;57.69
60267;BME280;46125;61.360;-149.532;2023-08-24T07:00:02;100012.84;;;17.63;58.09
60267;BME280;46125;61.360;-149.532;2023-08-24T07:02:31;100011.54;;;17.92;56.77
60267;BME280;46125;61.360;-149.532;2023-08-24T07:05:00;100012.00;;;17.97;56.38
60267;BME280;46125;61.360;-149.532;2023-08-24T07:07:28;100006.80;;;18.03;56.93
60267;BME280;46125;61.360;-149.532;2023-08-24T07:09:57;100006.25;;;17.20;58.34
60267;BME280;46125;61.360;-149.532;2023-08-24T07:12:25;100006.50;;;17.41;57.91
60267;BME280;46125;61.360;-149.532;2023-08-24T07:14:54;100006.85;;;17.70;56.61
60267;BME280;46125;61.360;-149.532;2023-08-24T07:17:22;100008.23;;;18.08;56.39
60267;BME280;46125;61.360;-149.532;2023-08-24T07:19:50;100009.21;;;17.86;56.36
60267;BME280;46125;61.360;-149.532;2023-08-24T07:22:19;100005.04;;;17.89;56.10
60267;BME280;46125;61.360;-149.532;2023-08-24T07:24:47;100005.86;;;17.81;56.31
60267;BME280;46125;61.360;-149.532;2023-08-24T07:27:15;100007.19;;;17.55;57.11
60267;BME280;46125;61.360;-149.532;2023-08-24T07:29:44;100012.50;;;17.43;57.54
60267;BME280;46125;61.360;-149.532;2023-08-24T07:32:13;100013.01;;;17.51;56.70
60267;BME280;46125;61.360;-149.532;2023-08-24T07:34:41;100012.24;;;17.84;56.17
60267;BME280;46125;61.360;-149.532;2023-08-24T07:37:10;100017.16;;;17.59;56.71
60267;BME280;46125;61.360;-149.532;2023-08-24T07:39:39;100020.61;;;17.65;56.55
60267;BME280;46125;61.360;-149.532;2023-08-24T07:42:07;100018.88;;;17.59;56.62
60267;BME280;46125;61.360;-149.532;2023-08-24T07:44:35;100017.88;;;17.35;56.97
60267;BME280;46125;61.360;-149.532;2023-08-24T07:47:04;100010.83;;;17.45;56.78
60267;BME280;46125;61.360;-149.532;2023-08-24T07:49:32;100004.02;;;17.41;56.60
60267;BME280;46125;61.360;-149.532;2023-08-24T07:52:00;100005.84;;;17.32;57.02
60267;BME280;46125;61.360;-149.532;2023-08-24T07:54:29;100007.33;;;17.55;56.33
60267;BME280;46125;61.360;-149.532;2023-08-24T07:56:57;100010.99;;;17.74;56.59
60267;BME280;46125;61.360;-149.532;2023-08-24T07:59:25;100011.52;;;17.50;56.38
60267;BME280;46125;61.360;-149.532;2023-08-24T08:01:54;100014.25;;;17.65;55.95
60267;BME280;46125;61.360;-149.532;2023-08-24T08:04:22;100016.24;;;17.70;55.83
60267;BME280;46125;61.360;-149.532;2023-08-24T08:06:52;100014.17;;;17.85;56.05
60267;BME280;46125;61.360;-149.532;2023-08-24T08:09:20;100015.30;;;17.68;55.86
60267;BME280;46125;61.360;-149.532;2023-08-24T08:11:48;100020.12;;;16.70;58.85
60267;BME280;46125;61.360;-149.532;2023-08-24T08:14:17;100022.78;;;17.24;57.29
60267;BME280;46125;61.360;-149.532;2023-08-24T08:16:45;100023.20;;;17.37;56.99
60267;BME280;46125;61.360;-149.532;2023-08-24T08:19:13;100027.32;;;17.29;57.43
60267;BME280;46125;61.360;-149.532;2023-08-24T08:21:42;100029.04;;;17.48;56.87
60267;BME280;46125;61.360;-149.532;2023-08-24T08:24:11;100028.56;;;17.50;56.68
60267;BME280;46125;61.360;-149.532;2023-08-24T08:26:39;100025.53;;;17.72;56.18
60267;BME280;46125;61.360;-149.532;2023-08-24T08:29:08;100025.25;;;17.78;55.97
60267;BME280;46125;61.360;-149.532;2023-08-24T08:31:36;100027.58;;;16.54;59.32
60267;BME280;46125;61.360;-149.532;2023-08-24T08:34:04;100029.54;;;16.80;59.21
60267;BME280;46125;61.360;-149.532;2023-08-24T08:36:32;100028.95;;;17.14;57.93
60267;BME280;46125;61.360;-149.532;2023-08-24T08:39:00;100028.36;;;17.37;57.20
60267;BME280;46125;61.360;-149.532;2023-08-24T08:41:42;100024.29;;;17.32;57.05
60267;BME280;46125;61.360;-149.532;2023-08-24T08:44:13;100023.88;;;17.28;57.55
60267;BME280;46125;61.360;-149.532;2023-08-24T08:46:43;100026.62;;;17.52;56.45
60267;BME280;46125;61.360;-149.532;2023-08-24T08:49:13;100027.19;;;17.19;56.06
60267;BME280;46125;61.360;-149.532;2023-08-24T08:51:42;100023.41;;;17.15;57.10
60267;BME280;46125;61.360;-149.532;2023-08-24T08:54:12;100024.26;;;17.01;57.16
60267;BME280;46125;61.360;-149.532;2023-08-24T08:56:40;100021.39;;;17.06;57.24
60267;BME280;46125;61.360;-149.532;2023-08-24T08:59:09;100013.58;;;17.09;57.34
60267;BME280;46125;61.360;-149.532;2023-08-24T09:01:38;100014.89;;;17.05;57.03
60267;BME280;46125;61.360;-149.532;2023-08-24T09:04:07;100014.34;;;17.36;57.05
60267;BME280;46125;61.360;-149.532;2023-08-24T09:06:37;100011.68;;;17.33;57.25
60267;BME280;46125;61.360;-149.532;2023-08-24T09:09:08;100005.17;;;16.62;58.34
60267;BME280;46125;61.360;-149.532;2023-08-24T09:11:36;100006.53;;;15.85;60.80
60267;BME280;46125;61.360;-149.532;2023-08-24T09:14:05;100005.59;;;16.43;59.40
60267;BME280;46125;61.360;-149.532;2023-08-24T09:16:33;100011.31;;;16.71;59.26
60267;BME280;46125;61.360;-149.532;2023-08-24T09:19:05;100011.92;;;17.26;57.85
60267;BME280;46125;61.360;-149.532;2023-08-24T09:21:37;100009.46;;;17.38;57.24
60267;BME280;46125;61.360;-149.532;2023-08-24T09:24:07;100011.54;;;17.19;57.24
60267;BME280;46125;61.360;-149.532;2023-08-24T09:26:36;100009.59;;;17.31;56.92
60267;BME280;46125;61.360;-149.532;2023-08-24T09:29:12;100009.94;;;17.38;56.84
60267;BME280;46125;61.360;-149.532;2023-08-24T09:31:41;100010.48;;;17.50;56.58
60267;BME280;46125;61.360;-149.532;2023-08-24T09:34:11;100014.70;;;17.01;58.64
60267;BME280;46125;61.360;-149.532;2023-08-24T09:36:40;100016.98;;;17.14;58.15
60267;BME280;46125;61.360;-149.532;2023-08-24T09:39:09;100015.85;;;17.39;57.70
60267;BME280;46125;61.360;-149.532;2023-08-24T09:41:39;100013.65;;;17.06;56.93
60267;BME280;46125;61.360;-149.532;2023-08-24T09:44:08;100014.16;;;17.39;56.72
60267;BME280;46125;61.360;-149.532;2023-08-24T09:46:37;100012.36;;;17.39;56.67
60267;BME280;46125;61.360;-149.532;2023-08-24T09:49:07;100012.30;;;17.45;56.63
60267;BME280;46125;61.360;-149.532;2023-08-24T09:51:36;100007.46;;;17.28;56.39
60267;BME280;46125;61.360;-149.532;2023-08-24T09:54:06;100011.31;;;17.28;57.43
60267;BME280;46125;61.360;-149.532;2023-08-24T09:56:37;100010.60;;;16.64;58.80
60267;BME280;46125;61.360;-149.532;2023-08-24T09:59:11;100010.43;;;17.02;57.81
60267;BME280;46125;61.360;-149.532;2023-08-24T10:01:42;100013.73;;;17.15;57.47
60267;BME280;46125;61.360;-149.532;2023-08-24T10:04:11;100008.75;;;16.62;59.07
60267;BME280;46125;61.360;-149.532;2023-08-24T10:06:40;100006.49;;;16.79;58.39
60267;BME280;46125;61.360;-149.532;2023-08-24T10:09:18;100004.18;;;16.89;58.97
60267;BME280;46125;61.360;-149.532;2023-08-24T10:11:52;100004.56;;;16.71;59.83
60267;BME280;46125;61.360;-149.532;2023-08-24T10:14:29;100002.48;;;16.48;60.49
60267;BME280;46125;61.360;-149.532;2023-08-24T10:16:58;100000.39;;;16.87;59.59
60267;BME280;46125;61.360;-149.532;2023-08-24T10:19:28;99995.40;;;16.99;58.74
60267;BME280;46125;61.360;-149.532;2023-08-24T10:21:57;99995.96;;;17.16;58.29
60267;BME280;46125;61.360;-149.532;2023-08-24T10:24:28;100000.28;;;16.95;58.43
60267;BME280;46125;61.360;-149.532;2023-08-24T10:26:57;100000.81;;;16.91;59.10
60267;BME280;46125;61.360;-149.532;2023-08-24T10:29:28;99999.87;;;16.24;61.46
60267;BME280;46125;61.360;-149.532;2023-08-24T10:31:57;99994.09;;;15.97;61.78
60267;BME280;46125;61.360;-149.532;2023-08-24T10:34:26;99992.48;;;16.44;60.86
60267;BME280;46125;61.360;-149.532;2023-08-24T10:36:54;99996.81;;;15.86;62.07
60267;BME280;46125;61.360;-149.532;2023-08-24T10:39:28;100003.83;;;16.30;62.37
60267;BME280;46125;61.360;-149.532;2023-08-24T10:41:56;99996.36;;;16.84;60.41
60267;BME280;46125;61.360;-149.532;2023-08-24T10:44:33;99986.06;;;16.61;61.51
60267;BME280;46125;61.360;-149.532;2023-08-24T10:47:13;99985.90;;;16.61;61.21
60267;BME280;46125;61.360;-149.532;2023-08-24T10:49:42;99987.82;;;16.24;61.97
60267;BME280;46125;61.360;-149.532;2023-08-24T10:52:20;99982.99;;;16.29;62.78
60267;BME280;46125;61.360;-149.532;2023-08-24T10:54:51;99976.30;;;15.92;63.62
60267;BME280;46125;61.360;-149.532;2023-08-24T10:57:21;99977.15;;;15.39;63.92
60267;BME280;46125;61.360;-149.532;2023-08-24T11:00:07;99972.88;;;16.36;62.87
60267;BME280;46125;61.360;-149.532;2023-08-24T11:02:44;99971.80;;;15.73;63.77
60267;BME280;46125;61.360;-149.532;2023-08-24T11:05:18;99962.46;;;16.31;62.85
60267;BME280;46125;61.360;-149.532;2023-08-24T11:07:51;99968.89;;;15.37;65.27
60267;BME280;46125;61.360;-149.532;2023-08-24T11:10:23;99968.16;;;15.82;64.09
60267;BME280;46125;61.360;-149.532;2023-08-24T11:13:08;99959.96;;;16.73;63.02
60267;BME280;46125;61.360;-149.532;2023-08-24T11:15:39;99957.87;;;16.61;62.27
60267;BME280;46125;61.360;-149.532;2023-08-24T11:18:13;99958.27;;;16.76;61.46
60267;BME280;46125;61.360;-149.532;2023-08-24T11:20:44;99953.88;;;16.00;63.25
60267;BME280;46125;61.360;-149.532;2023-08-24T11:23:14;99949.23;;;16.53;61.97
60267;BME280;46125;61.360;-149.532;2023-08-24T11:25:42;99948.45;;;16.46;62.89
60267;BME280;46125;61.360;-149.532;2023-08-24T11:28:11;99953.03;;;14.77;67.65
60267;BME280;46125;61.360;-149.532;2023-08-24T11:30:40;99951.90;;;14.82;67.27
60267;BME280;46125;61.360;-149.532;2023-08-24T11:33:12;99954.18;;;15.76;64.88
60267;BME280;46125;61.360;-149.532;2023-08-24T11:35:42;99954.37;;;15.10;66.84
60267;BME280;46125;61.360;-149.532;2023-08-24T11:38:10;99948.08;;;15.25;66.93
60267;BME280;46125;61.360;-149.532;2023-08-24T11:40:39;99945.10;;;15.72;65.11
60267;BME280;46125;61.360;-149.532;2023-08-24T11:43:07;99946.17;;;15.13;66.88
60267;BME280;46125;61.360;-149.532;2023-08-24T11:45:36;99945.72;;;15.67;66.70
60267;BME280;46125;61.360;-149.532;2023-08-24T11:48:05;99943.79;;;15.14;67.22
60267;BME280;46125;61.360;-149.532;2023-08-24T11:50:37;99941.66;;;14.31;70.71
60267;BME280;46125;61.360;-149.532;2023-08-24T11:53:07;99937.81;;;14.80;68.94
60267;BME280;46125;61.360;-149.532;2023-08-24T11:55:40;99938.19;;;15.99;65.47
60267;BME280;46125;61.360;-149.532;2023-08-24T11:58:15;99932.24;;;16.11;65.30
60267;BME280;46125;61.360;-149.532;2023-08-24T12:00:44;99924.89;;;16.09;64.83
60267;BME280;46125;61.360;-149.532;2023-08-24T12:03:13;99924.79;;;14.47;71.23
60267;BME280;46125;61.360;-149.532;2023-08-24T12:05:41;99930.67;;;15.10;68.58
60267;BME280;46125;61.360;-149.532;2023-08-24T12:08:11;99930.33;;;14.92;68.85
60267;BME280;46125;61.360;-149.532;2023-08-24T12:10:43;99935.62;;;14.53;69.67
60267;BME280;46125;61.360;-149.532;2023-08-24T12:13:12;99924.18;;;13.47;73.17
60267;BME280;46125;61.360;-149.532;2023-08-24T12:15:41;99918.79;;;15.15;68.91
60267;BME280;46125;61.360;-149.532;2023-08-24T12:18:11;99918.25;;;15.11;68.32
60267;BME280;46125;61.360;-149.532;2023-08-24T12:20:40;99913.00;;;15.02;67.99
60267;BME280;46125;61.360;-149.532;2023-08-24T12:23:11;99915.72;;;13.47;74.00
60267;BME280;46125;61.360;-149.532;2023-08-24T12:25:42;99914.72;;;15.30;68.52
60267;BME280;46125;61.360;-149.532;2023-08-24T12:28:12;99913.13;;;14.87;69.18
60267;BME280;46125;61.360;-149.532;2023-08-24T12:30:45;99918.93;;;16.50;64.78
60267;BME280;46125;61.360;-149.532;2023-08-24T12:33:30;99916.67;;;15.77;65.61
60267;BME280;46125;61.360;-149.532;2023-08-24T12:35:58;99917.97;;;16.33;63.83
60267;BME280;46125;61.360;-149.532;2023-08-24T12:38:27;99913.72;;;16.16;64.20